Time;durP1;ratioP1;P1;durP2;ratioP2;P2;SDS_P1;SDS_P2;PMS_P1;PMS_P2;Temp;Humidity;BMP_temperature;BMP_pressure;BME280_temperature;BME280_humidity;BME280_pressure;Samples;Min_cycle;Max_cycle;Signal;HPM_P1;HPM_P2
2021/11/20 00:01:36;;;;;;;8.35;6.97;;;8.20;94.80;;;;;;4975617;28;20209;-78
2021/11/20 00:04:05;;;;;;;8.70;7.00;;;8.10;94.50;;;;;;4973957;28;20316;-77
2021/11/20 00:06:36;;;;;;;10.77;7.85;;;8.20;94.70;;;;;;4955993;28;20236;-77
2021/11/20 00:09:05;;;;;;;10.23;7.55;;;8.20;94.70;;;;;;4954788;28;20213;-76
2021/11/20 00:11:34;;;;;;;10.68;7.35;;;8.30;94.70;;;;;;4956368;29;20225;-77
2021/11/20 00:14:02;;;;;;;10.50;7.65;;;8.30;94.50;;;;;;4955542;28;20260;-78
2021/11/20 00:16:29;;;;;;;9.85;6.88;;;8.20;93.80;;;;;;4956096;28;20214;-76
2021/11/20 00:18:56;;;;;;;10.63;7.43;;;8.20;94.50;;;;;;4955042;29;20206;-76
2021/11/20 00:21:26;;;;;;;9.45;7.35;;;8.20;94.30;;;;;;4955852;28;20300;-77
2021/11/20 00:23:57;;;;;;;10.90;7.15;;;8.20;94.20;;;;;;4966913;28;20226;-76
2021/11/20 00:26:29;;;;;;;8.95;7.15;;;8.20;94.60;;;;;;4974547;28;20217;-77
2021/11/20 00:29:17;;;;;;;9.18;7.03;;;8.30;94.30;;;;;;4964321;28;20359;-76
2021/11/20 00:31:47;;;;;;;8.70;7.25;;;8.30;93.70;;;;;;4975757;28;20232;-75
2021/11/20 00:34:17;;;;;;;7.97;6.60;;;8.30;93.30;;;;;;4968321;28;20709;-77
2021/11/20 00:36:44;;;;;;;12.23;7.30;;;8.30;92.90;;;;;;5023849;23;20352;-77
2021/11/20 00:39:16;;;;;;;9.00;7.22;;;8.30;92.90;;;;;;4957846;28;20221;-78
2021/11/20 00:41:50;;;;;;;9.20;7.13;;;8.30;92.90;;;;;;4957225;28;20707;-78
2021/11/20 00:44:17;;;;;;;10.52;7.70;;;8.20;92.80;;;;;;4959583;28;20213;-77
2021/11/20 00:47:05;;;;;;;11.27;7.30;;;8.10;93.40;;;;;;4964457;28;20230;-79
2021/11/20 00:49:33;;;;;;;12.65;8.20;;;8.10;93.70;;;;;;4961748;28;20212;-76
2021/11/20 00:52:00;;;;;;;7.93;6.90;;;8.10;93.80;;;;;;4962438;28;20210;-78
2021/11/20 00:54:29;;;;;;;8.10;6.63;;;8.10;94.10;;;;;;4972711;28;20217;-78
2021/11/20 00:56:56;;;;;;;8.50;6.20;;;8.10;94.20;;;;;;4969814;28;20245;-78
2021/11/20 00:59:23;;;;;;;8.95;6.43;;;8.20;93.90;;;;;;4967870;28;20205;-77
2021/11/20 01:01:53;;;;;;;7.68;6.65;;;8.10;93.30;;;;;;4970503;28;20241;-79
2021/11/20 01:04:21;;;;;;;6.10;5.50;;;8.10;93.70;;;;;;4960408;28;20248;-78
2021/11/20 01:06:51;;;;;;;7.72;5.65;;;8.10;94.10;;;;;;4958593;28;20235;-79
2021/11/20 01:09:21;;;;;;;8.88;6.13;;;8.10;93.70;;;;;;4955374;28;20209;-79
2021/11/20 01:11:52;;;;;;;7.78;5.90;;;8.10;93.50;;;;;;4961559;28;20206;-78
2021/11/20 01:14:21;;;;;;;6.00;5.30;;;8.10;93.60;;;;;;4959203;28;20228;-79
2021/11/20 01:16:50;;;;;;;7.18;5.80;;;8.10;93.50;;;;;;4959818;28;20293;-77
2021/11/20 01:19:17;;;;;;;7.22;5.22;;;8.10;93.40;;;;;;4964194;28;20218;-79
2021/11/20 01:21:44;;;;;;;6.75;5.38;;;8.10;93.40;;;;;;4968124;28;20216;-79
2021/11/20 01:24:21;;;;;;;6.93;5.47;;;8.20;92.90;;;;;;4973102;28;20213;-79
2021/11/20 01:26:50;;;;;;;8.68;6.40;;;8.20;92.80;;;;;;4967006;28;20233;-79
2021/11/20 01:29:18;;;;;;;6.85;5.90;;;8.10;92.80;;;;;;4963821;28;20270;-77
2021/11/20 01:31:48;;;;;;;7.35;5.28;;;8.10;92.80;;;;;;4971186;28;20205;-79
2021/11/20 01:34:16;;;;;;;6.43;5.40;;;8.10;92.80;;;;;;4977612;28;20269;-79
2021/11/20 01:36:44;;;;;;;8.18;5.68;;;8.10;92.90;;;;;;4977466;28;20256;-79
2021/11/20 01:39:14;;;;;;;5.60;4.53;;;8.10;93.10;;;;;;4976631;28;20224;-76
2021/11/20 01:41:45;;;;;;;6.07;5.22;;;8.10;93.20;;;;;;4973655;28;20216;-78
2021/11/20 01:44:17;;;;;;;6.32;5.03;;;8.10;92.80;;;;;;4970861;28;20213;-77
2021/11/20 01:46:48;;;;;;;6.53;5.15;;;8.10;92.80;;;;;;4965925;28;20332;-78
2021/11/20 01:49:20;;;;;;;6.40;5.03;;;8.10;92.80;;;;;;4961401;28;20205;-77
2021/11/20 01:51:50;;;;;;;6.93;5.30;;;8.10;92.80;;;;;;4957811;28;20205;-79
2021/11/20 01:54:29;;;;;;;6.18;5.10;;;8.10;92.80;;;;;;4957756;28;20214;-77
2021/11/20 01:57:01;;;;;;;6.93;4.68;;;8.20;92.80;;;;;;4957200;28;20316;-79
2021/11/20 01:59:36;;;;;;;8.75;4.50;;;8.20;92.80;;;;;;4957793;28;20214;-79
2021/11/20 02:02:17;;;;;;;6.10;4.75;;;8.20;92.60;;;;;;4958921;28;20296;-78
2021/11/20 02:04:51;;;;;;;5.45;4.35;;;8.20;92.40;;;;;;4957939;28;20205;-79
2021/11/20 02:07:26;;;;;;;6.53;4.75;;;8.10;91.80;;;;;;4959610;28;20222;-79
2021/11/20 02:09:59;;;;;;;5.93;4.60;;;8.10;92.20;;;;;;4969264;28;20316;-78
2021/11/20 02:12:30;;;;;;;5.20;4.28;;;8.10;92.30;;;;;;4959106;28;20198;-78
2021/11/20 02:14:59;;;;;;;7.80;4.47;;;8.10;91.90;;;;;;4957091;28;20217;-78
2021/11/20 02:17:38;;;;;;;4.70;4.20;;;8.10;92.30;;;;;;4961047;28;20240;-77
2021/11/20 02:22:52;;;;;;;7.60;4.90;;;8.20;92.10;;;;;;4972818;28;20229;-78
2021/11/20 02:25:20;;;;;;;6.35;5.70;;;8.10;91.60;;;;;;4960639;28;20273;-77
2021/11/20 02:27:51;;;;;;;7.10;5.40;;;8.10;91.60;;;;;;4959374;28;20277;-77
2021/11/20 02:30:23;;;;;;;8.10;5.28;;;8.10;91.60;;;;;;4965455;28;20214;-78
2021/11/20 02:32:53;;;;;;;9.93;6.30;;;8.20;91.80;;;;;;4957181;28;20206;-77
2021/11/20 02:35:25;;;;;;;6.78;5.43;;;8.10;91.80;;;;;;4970292;28;20216;-77
2021/11/20 02:37:52;;;;;;;7.40;5.90;;;8.10;92.00;;;;;;4965575;28;20273;-78
2021/11/20 02:40:19;;;;;;;8.32;6.45;;;8.20;91.90;;;;;;4958990;28;20206;-78
2021/11/20 02:42:47;;;;;;;10.57;6.35;;;8.20;91.60;;;;;;4957256;28;20216;-77
2021/11/20 02:45:18;;;;;;;8.90;6.90;;;8.20;91.30;;;;;;4957611;29;20228;-77
2021/11/20 02:47:46;;;;;;;9.52;7.13;;;8.10;91.10;;;;;;4958884;28;20233;-77
2021/11/20 02:50:13;;;;;;;14.23;8.70;;;8.20;91.90;;;;;;4965048;28;20602;-78
2021/11/20 02:52:40;;;;;;;8.48;7.15;;;8.20;91.60;;;;;;4967401;28;20277;-78
2021/11/20 02:55:10;;;;;;;9.13;6.80;;;8.20;91.50;;;;;;4972140;28;20198;-78
2021/11/20 02:57:41;;;;;;;9.65;7.45;;;8.10;91.70;;;;;;4972972;28;20234;-79
2021/11/20 03:00:13;;;;;;;10.30;7.10;;;8.10;92.00;;;;;;4967597;28;20206;-78
2021/11/20 03:02:42;;;;;;;8.82;6.82;;;7.90;92.70;;;;;;4968163;28;20590;-80
2021/11/20 03:05:12;;;;;;;8.93;6.97;;;8.00;93.20;;;;;;4965662;28;20206;-78
2021/11/20 03:07:39;;;;;;;9.43;7.35;;;8.10;93.60;;;;;;4966547;28;20229;-78
2021/11/20 03:10:08;;;;;;;11.07;8.23;;;8.10;93.30;;;;;;4964613;28;20210;-78
2021/11/20 03:12:35;;;;;;;11.88;8.07;;;8.10;92.80;;;;;;4963388;28;20712;-79
2021/11/20 03:15:03;;;;;;;10.82;8.75;;;8.00;93.00;;;;;;4965209;28;20237;-79
2021/11/20 03:17:30;;;;;;;13.50;8.45;;;8.00;93.70;;;;;;4962492;28;20225;-78
2021/11/20 03:19:56;;;;;;;11.18;8.25;;;7.90;94.50;;;;;;4963437;28;20208;-79
2021/11/20 03:22:28;;;;;;;10.85;8.85;;;7.90;94.90;;;;;;4964622;28;20212;-77
2021/11/20 03:24:57;;;;;;;11.73;8.05;;;8.00;94.80;;;;;;4965169;28;20202;-78
2021/11/20 03:27:24;;;;;;;12.15;8.82;;;8.00;94.90;;;;;;4964576;28;20234;-79
2021/11/20 03:29:51;;;;;;;11.52;8.80;;;8.00;95.10;;;;;;4963059;28;20296;-79
2021/11/20 03:32:19;;;;;;;14.57;9.93;;;8.00;95.10;;;;;;4965269;28;20304;-78
2021/11/20 03:34:47;;;;;;;13.73;9.65;;;8.00;95.30;;;;;;4963645;28;20205;-78
2021/11/20 03:37:14;;;;;;;13.45;10.13;;;8.10;95.30;;;;;;4953190;28;20258;-79
2021/11/20 03:39:43;;;;;;;14.38;9.88;;;8.00;95.20;;;;;;4942780;29;20207;-78
2021/11/20 03:42:11;;;;;;;12.60;10.00;;;8.00;95.40;;;;;;4943804;29;20214;-80
2021/11/20 03:44:38;;;;;;;14.95;10.93;;;8.10;95.60;;;;;;4962812;28;20206;-79
2021/11/20 03:47:07;;;;;;;17.42;12.07;;;8.10;95.50;;;;;;4961039;28;20236;-79
2021/11/20 03:49:35;;;;;;;14.77;11.48;;;8.20;95.90;;;;;;4963437;28;20273;-80
2021/11/20 03:52:01;;;;;;;17.95;12.55;;;8.20;95.40;;;;;;4961836;28;20198;-78
2021/11/20 03:54:28;;;;;;;17.52;12.70;;;8.20;94.80;;;;;;4963522;28;20296;-80
2021/11/20 03:56:57;;;;;;;16.80;11.23;;;8.20;94.70;;;;;;4963619;28;20669;-79
2021/11/20 03:59:25;;;;;;;15.50;10.20;;;8.00;94.60;;;;;;4963386;28;20305;-80
2021/11/20 04:01:52;;;;;;;16.17;10.93;;;8.00;95.50;;;;;;4966305;28;20289;-79
2021/11/20 04:04:19;;;;;;;13.25;9.70;;;8.00;95.70;;;;;;4969688;28;20220;-81
2021/11/20 04:06:45;;;;;;;12.05;9.75;;;8.10;95.70;;;;;;4967207;28;20590;-79
2021/11/20 04:09:13;;;;;;;16.85;10.82;;;8.10;95.40;;;;;;4968268;28;20216;-80
2021/11/20 04:11:42;;;;;;;14.63;9.77;;;8.10;95.30;;;;;;4961705;28;20638;-79
2021/11/20 04:14:10;;;;;;;14.05;10.52;;;8.10;95.10;;;;;;4963000;28;20305;-79
2021/11/20 04:16:37;;;;;;;15.13;10.82;;;8.10;95.20;;;;;;4961555;28;20229;-80
2021/11/20 04:19:05;;;;;;;14.68;10.73;;;8.10;94.60;;;;;;4960639;28;20272;-79
2021/11/20 04:21:32;;;;;;;14.77;10.30;;;8.10;94.60;;;;;;4960458;28;20213;-80
2021/11/20 04:24:00;;;;;;;16.92;10.10;;;8.00;94.60;;;;;;4960830;28;20205;-78
2021/11/20 04:26:28;;;;;;;14.57;9.80;;;8.00;94.60;;;;;;4959303;28;20232;-78
2021/11/20 04:28:55;;;;;;;14.98;10.30;;;8.00;94.60;;;;;;4960732;28;20209;-79
2021/11/20 04:31:24;;;;;;;12.55;9.57;;;8.00;94.60;;;;;;4960347;28;20202;-78
2021/11/20 04:33:52;;;;;;;13.73;10.32;;;7.90;94.30;;;;;;4959473;28;20275;-78
2021/11/20 04:36:20;;;;;;;14.63;10.43;;;7.80;94.60;;;;;;4959620;28;20234;-78
2021/11/20 04:38:47;;;;;;;16.63;10.82;;;7.90;95.20;;;;;;4959934;28;20525;-79
2021/11/20 04:41:15;;;;;;;15.60;10.85;;;7.80;95.10;;;;;;4959124;28;20654;-80
2021/11/20 04:43:43;;;;;;;14.63;11.30;;;7.90;95.20;;;;;;4959976;28;20665;-79
2021/11/20 04:46:10;;;;;;;15.23;10.75;;;7.90;94.60;;;;;;4958956;28;20264;-79
2021/11/20 04:48:39;;;;;;;19.50;11.15;;;7.80;94.70;;;;;;4958271;28;20210;-79
2021/11/20 04:51:06;;;;;;;16.23;11.07;;;7.90;94.90;;;;;;4955955;28;20206;-80
2021/11/20 04:53:35;;;;;;;16.35;11.02;;;7.90;94.60;;;;;;4954946;28;20209;-78
2021/11/20 04:56:03;;;;;;;14.40;10.70;;;7.90;94.50;;;;;;4954811;28;20225;-79
2021/11/20 04:58:30;;;;;;;17.08;11.60;;;7.90;94.40;;;;;;4953860;28;20605;-79
2021/11/20 05:00:58;;;;;;;13.85;10.40;;;7.90;94.00;;;;;;4954238;28;20210;-79
2021/11/20 05:03:26;;;;;;;16.52;10.93;;;7.80;94.50;;;;;;4970314;28;20233;-79
2021/11/20 05:05:56;;;;;;;18.00;11.60;;;7.80;94.50;;;;;;4971460;28;20677;-79
2021/11/20 05:08:24;;;;;;;15.40;10.98;;;7.70;94.50;;;;;;4970451;28;20201;-81
2021/11/20 05:10:52;;;;;;;17.23;11.30;;;7.60;94.30;;;;;;4976763;28;20190;-80
2021/11/20 05:13:21;;;;;;;17.67;11.70;;;7.50;94.50;;;;;;4967623;28;20208;-79
2021/11/20 05:15:51;;;;;;;17.13;10.35;;;7.40;94.80;;;;;;4955385;28;20229;-79
2021/11/20 05:18:18;;;;;;;19.15;10.82;;;7.30;95.50;;;;;;4954937;28;20557;-79
2021/11/20 05:20:45;;;;;;;15.07;10.70;;;7.20;96.00;;;;;;4954050;28;20214;-79
2021/11/20 05:23:14;;;;;;;16.77;11.85;;;7.20;96.10;;;;;;4954017;28;20206;-79
2021/11/20 05:25:41;;;;;;;18.58;12.55;;;7.00;96.40;;;;;;4954281;28;20213;-77
2021/11/20 05:28:09;;;;;;;16.75;12.10;;;6.90;97.40;;;;;;4953784;28;20224;-78
2021/11/20 05:30:39;;;;;;;18.08;13.50;;;6.90;97.70;;;;;;4953438;28;20209;-78
2021/11/20 05:33:09;;;;;;;21.38;13.60;;;6.80;98.60;;;;;;4961083;28;20206;-79
2021/11/20 05:35:37;;;;;;;17.88;12.35;;;6.80;99.30;;;;;;4962826;28;20596;-79
2021/11/20 05:38:04;;;;;;;20.30;12.93;;;6.80;99.70;;;;;;4963113;28;20216;-79
2021/11/20 05:40:33;;;;;;;19.50;12.35;;;6.70;99.90;;;;;;4957093;28;20217;-79
2021/11/20 05:43:03;;;;;;;19.40;13.95;;;6.60;99.90;;;;;;4953966;29;20312;-78
2021/11/20 05:45:32;;;;;;;22.63;14.68;;;6.70;99.90;;;;;;4954504;28;20216;-78
2021/11/20 05:47:59;;;;;;;24.80;13.77;;;6.70;99.90;;;;;;4955271;28;20229;-79
2021/11/20 05:50:27;;;;;;;22.83;13.15;;;6.60;99.90;;;;;;4955874;28;20281;-79
2021/11/20 05:52:55;;;;;;;18.73;13.00;;;6.60;99.90;;;;;;4956253;28;20206;-79
2021/11/20 05:55:24;;;;;;;21.05;13.45;;;6.60;99.90;;;;;;4957083;28;20214;-79
2021/11/20 05:57:52;;;;;;;17.95;12.93;;;6.60;99.90;;;;;;4958421;28;20237;-78
2021/11/20 06:00:21;;;;;;;22.05;13.32;;;6.60;99.90;;;;;;4966476;28;20213;-79
2021/11/20 06:02:49;;;;;;;19.65;13.10;;;6.60;99.90;;;;;;4970049;28;20220;-78
2021/11/20 06:05:16;;;;;;;21.30;13.57;;;6.50;99.90;;;;;;4974223;28;20282;-78
2021/11/20 06:07:42;;;;;;;21.52;13.30;;;6.60;99.90;;;;;;4975128;28;20340;-78
2021/11/20 06:10:10;;;;;;;21.95;13.60;;;6.60;99.90;;;;;;4957728;28;20205;-78
2021/11/20 06:12:37;;;;;;;19.45;13.48;;;6.60;99.90;;;;;;4957276;28;20218;-77
2021/11/20 06:15:06;;;;;;;20.25;13.32;;;6.60;99.90;;;;;;4958038;28;20213;-77
2021/11/20 06:17:33;;;;;;;22.33;13.52;;;6.60;99.90;;;;;;4957519;28;20226;-77
2021/11/20 06:20:00;;;;;;;21.05;13.60;;;6.60;99.90;;;;;;4957213;28;20216;-78
2021/11/20 06:22:27;;;;;;;17.63;12.40;;;6.70;99.90;;;;;;4957263;28;20209;-78
2021/11/20 06:24:57;;;;;;;20.45;12.82;;;6.70;99.90;;;;;;4956662;29;20305;-77
2021/11/20 06:27:24;;;;;;;18.75;13.60;;;6.70;99.90;;;;;;4956729;28;20261;-78
2021/11/20 06:29:51;;;;;;;19.38;13.32;;;6.70;99.90;;;;;;4955934;28;20305;-78
2021/11/20 06:32:19;;;;;;;22.00;13.50;;;6.70;99.90;;;;;;4957086;28;20228;-78
2021/11/20 06:34:46;;;;;;;21.48;14.48;;;6.70;99.90;;;;;;4957201;29;20202;-78
2021/11/20 06:37:13;;;;;;;18.80;12.68;;;6.70;99.90;;;;;;4958189;28;20281;-78
2021/11/20 06:39:43;;;;;;;17.77;11.90;;;6.70;99.90;;;;;;4958190;28;20206;-79
2021/11/20 06:42:10;;;;;;;17.95;12.40;;;6.70;99.90;;;;;;4957661;28;20210;-78
2021/11/20 06:44:36;;;;;;;19.27;11.63;;;6.80;99.90;;;;;;4957597;28;20202;-78
2021/11/20 06:47:04;;;;;;;17.85;12.13;;;6.80;99.90;;;;;;4957191;28;20230;-79
2021/11/20 06:49:32;;;;;;;17.30;11.82;;;6.80;99.90;;;;;;4958058;28;20206;-78
2021/11/20 06:52:00;;;;;;;17.50;11.88;;;6.70;99.90;;;;;;4957839;28;20234;-78
2021/11/20 06:54:27;;;;;;;17.55;11.88;;;6.70;99.90;;;;;;4956800;28;20216;-78
2021/11/20 06:57:03;;;;;;;17.35;12.15;;;6.70;99.90;;;;;;4956503;28;20232;-78
2021/11/20 07:02:31;;;;;;;16.50;10.90;;;6.60;99.90;;;;;;4957158;28;20201;-79
2021/11/20 07:05:00;;;;;;;17.58;11.80;;;6.60;99.90;;;;;;4973681;28;20213;-79
2021/11/20 07:07:27;;;;;;;14.63;10.35;;;6.50;99.90;;;;;;4960379;28;20221;-80
2021/11/20 07:09:54;;;;;;;19.65;11.50;;;6.50;99.90;;;;;;4974690;28;20596;-79
2021/11/20 07:12:21;;;;;;;16.17;11.18;;;6.40;99.90;;;;;;4964536;28;20226;-79
2021/11/20 07:14:48;;;;;;;19.55;11.63;;;6.40;99.90;;;;;;4967844;28;20281;-78
2021/11/20 07:17:16;;;;;;;18.88;11.93;;;6.40;99.90;;;;;;4949848;28;20237;-77
2021/11/20 07:19:43;;;;;;;16.38;11.98;;;6.40;99.90;;;;;;4943921;29;20220;-78
2021/11/20 07:22:11;;;;;;;15.80;11.73;;;6.50;99.90;;;;;;4954391;29;20221;-78
2021/11/20 07:24:38;;;;;;;15.45;11.85;;;6.50;99.90;;;;;;4962299;28;20240;-78
2021/11/20 07:27:05;;;;;;;16.92;12.60;;;6.50;99.90;;;;;;4957546;28;20234;-77
2021/11/20 07:29:32;;;;;;;18.63;12.50;;;6.50;99.90;;;;;;4956737;28;20214;-77
2021/11/20 07:31:58;;;;;;;19.38;13.05;;;6.40;99.90;;;;;;4954959;28;20208;-77
2021/11/20 07:34:25;;;;;;;18.45;12.85;;;6.40;99.90;;;;;;4958844;28;20300;-78
2021/11/20 07:36:52;;;;;;;18.35;13.60;;;6.40;99.90;;;;;;4957989;28;20317;-78
2021/11/20 07:39:21;;;;;;;19.50;13.35;;;6.50;99.90;;;;;;4957275;28;20213;-78
2021/11/20 07:41:48;;;;;;;22.20;12.90;;;6.40;99.90;;;;;;4955849;28;20210;-77
2021/11/20 07:44:15;;;;;;;21.58;13.00;;;6.50;99.90;;;;;;4957096;28;20608;-77
2021/11/20 07:46:42;;;;;;;17.05;12.90;;;6.50;99.90;;;;;;4954264;28;20301;-77
2021/11/20 07:49:09;;;;;;;21.80;15.18;;;6.60;99.90;;;;;;4941156;29;20214;-77
2021/11/20 07:51:36;;;;;;;25.05;14.52;;;6.60;99.90;;;;;;4942131;29;20261;-77
2021/11/20 07:54:04;;;;;;;16.27;12.05;;;6.60;99.90;;;;;;4944561;28;20572;-78
2021/11/20 07:56:33;;;;;;;21.92;12.90;;;6.70;99.90;;;;;;4940360;29;20230;-78
2021/11/20 07:59:00;;;;;;;18.05;13.35;;;6.80;99.90;;;;;;4957272;28;20236;-81
2021/11/20 08:01:28;;;;;;;18.77;13.82;;;6.80;99.90;;;;;;4963342;28;20277;-79
2021/11/20 08:03:55;;;;;;;17.35;12.10;;;6.90;99.90;;;;;;4957057;28;20551;-79
2021/11/20 08:06:22;;;;;;;18.17;11.63;;;7.00;99.90;;;;;;4944378;29;20329;-79
2021/11/20 08:08:49;;;;;;;16.55;11.82;;;7.00;99.80;;;;;;4945260;29;20544;-79
2021/11/20 08:11:16;;;;;;;18.02;12.23;;;7.10;99.10;;;;;;4944494;29;20218;-79
2021/11/20 08:13:45;;;;;;;21.25;13.63;;;7.30;98.50;;;;;;4948463;29;20206;-79
2021/11/20 08:16:12;;;;;;;19.35;12.25;;;7.30;97.30;;;;;;4962136;28;20234;-79
2021/11/20 08:18:39;;;;;;;17.25;12.63;;;7.40;96.10;;;;;;4976781;28;20198;-79
2021/11/20 08:21:06;;;;;;;20.17;12.75;;;7.40;95.80;;;;;;4952588;28;20667;-79
2021/11/20 08:23:34;;;;;;;18.50;13.10;;;7.50;95.50;;;;;;4945630;29;20581;-79
2021/11/20 08:26:01;;;;;;;18.92;12.35;;;7.70;94.60;;;;;;4957975;29;20681;-79
2021/11/20 08:28:29;;;;;;;20.88;13.23;;;7.80;94.50;;;;;;4967121;28;20240;-81
2021/11/20 08:30:58;;;;;;;18.67;12.20;;;7.80;92.70;;;;;;4958687;28;20262;-78
2021/11/20 08:33:26;;;;;;;17.92;11.98;;;7.90;92.50;;;;;;4952535;29;20218;-80
2021/11/20 08:35:54;;;;;;;16.55;12.82;;;8.10;91.40;;;;;;4947229;29;20232;-78
2021/11/20 08:38:21;;;;;;;16.83;12.07;;;8.00;90.10;;;;;;4945581;29;20210;-79
2021/11/20 08:40:49;;;;;;;19.05;13.82;;;8.10;89.50;;;;;;4944146;29;20306;-79
2021/11/20 08:43:18;;;;;;;18.35;12.45;;;8.10;88.20;;;;;;4943914;29;20216;-79
2021/11/20 08:45:48;;;;;;;18.13;12.65;;;8.10;87.70;;;;;;4952377;29;20561;-79
2021/11/20 08:48:17;;;;;;;18.38;13.13;;;8.20;86.70;;;;;;4963266;28;20249;-80
2021/11/20 08:50:46;;;;;;;19.10;13.75;;;8.20;88.30;;;;;;4954090;28;20309;-79
2021/11/20 08:53:15;;;;;;;18.10;12.00;;;8.40;85.70;;;;;;4943337;29;20245;-80
2021/11/20 08:55:42;;;;;;;17.15;12.05;;;8.40;85.00;;;;;;4944209;29;20269;-79
2021/11/20 08:58:11;;;;;;;19.42;13.25;;;8.60;84.50;;;;;;4944326;29;20218;-79
2021/11/20 09:00:43;;;;;;;14.85;11.77;;;8.70;82.90;;;;;;4953144;29;21392;-80
2021/11/20 09:03:28;;;;;;;17.02;13.18;;;8.70;81.80;;;;;;4967267;29;20240;-78
2021/11/20 09:06:01;;;;;;;18.35;12.75;;;8.80;80.40;;;;;;4956122;29;20230;-78
2021/11/20 09:08:32;;;;;;;17.15;12.52;;;8.90;80.00;;;;;;4955548;29;20245;-79
2021/11/20 09:11:02;;;;;;;20.42;13.50;;;9.00;79.50;;;;;;4968782;29;20266;-77
2021/11/20 09:13:33;;;;;;;18.60;13.23;;;9.00;78.50;;;;;;4963863;28;20214;-80
2021/11/20 09:16:04;;;;;;;17.70;13.13;;;9.00;77.50;;;;;;4960418;28;20226;-78
2021/11/20 09:18:32;;;;;;;15.18;11.60;;;9.00;77.10;;;;;;4960673;28;20205;-78
2021/11/20 09:21:02;;;;;;;19.30;12.88;;;8.80;76.70;;;;;;4961008;28;20256;-78
2021/11/20 09:23:29;;;;;;;17.80;12.65;;;8.80;78.00;;;;;;4961336;28;20682;-78
2021/11/20 09:25:57;;;;;;;17.80;13.15;;;8.70;77.40;;;;;;4957346;28;20293;-79
2021/11/20 09:28:25;;;;;;;17.48;12.68;;;8.50;78.90;;;;;;4965536;28;20228;-78
2021/11/20 09:30:55;;;;;;;19.15;13.95;;;8.40;80.10;;;;;;4968681;28;20282;-78
2021/11/20 09:33:24;;;;;;;18.52;13.18;;;8.50;81.40;;;;;;4966707;28;20194;-78
2021/11/20 09:35:51;;;;;;;19.40;14.38;;;8.40;80.60;;;;;;4962170;28;20245;-79
2021/11/20 09:38:21;;;;;;;18.65;13.88;;;8.30;81.90;;;;;;4963642;29;20208;-79
2021/11/20 09:40:51;;;;;;;20.27;14.38;;;8.20;81.90;;;;;;4965092;28;20228;-79
2021/11/20 09:43:23;;;;;;;18.83;14.00;;;8.10;82.60;;;;;;4978712;28;20194;-77
2021/11/20 09:45:57;;;;;;;21.77;14.00;;;8.00;84.00;;;;;;4971842;28;20277;-77
2021/11/20 09:48:29;;;;;;;23.10;14.23;;;7.90;85.50;;;;;;4979213;28;20210;-78
2021/11/20 09:51:01;;;;;;;20.58;13.70;;;7.80;86.80;;;;;;4978044;28;20194;-77
2021/11/20 09:53:30;;;;;;;18.98;13.43;;;7.80;87.90;;;;;;4959994;28;20216;-78
2021/11/20 09:56:00;;;;;;;20.27;13.88;;;7.80;89.10;;;;;;4941934;29;20226;-77
2021/11/20 09:58:30;;;;;;;20.30;14.65;;;7.90;89.10;;;;;;4955585;29;20213;-77
2021/11/20 10:01:30;;;;;;;19.08;14.75;;;7.90;89.40;;;;;;4956612;28;20209;-77
2021/11/20 10:04:14;;;;;;;20.63;13.75;;;8.00;89.10;;;;;;4930850;29;20215;-78
2021/11/20 10:06:44;;;;;;;16.45;13.48;;;8.20;89.30;;;;;;4942355;29;20218;-77
2021/11/20 10:09:22;;;;;;;19.23;13.38;;;8.40;88.40;;;;;;4960326;28;20234;-78
2021/11/20 10:11:53;;;;;;;16.30;12.10;;;8.50;85.70;;;;;;4960467;28;20201;-78
2021/11/20 10:14:22;;;;;;;18.80;12.15;;;8.70;84.00;;;;;;4958075;28;20213;-77
2021/11/20 10:16:51;;;;;;;16.98;11.88;;;8.80;82.90;;;;;;4957201;28;20248;-77
2021/11/20 10:19:27;;;;;;;15.13;11.90;;;8.90;81.60;;;;;;4957621;28;20202;-77
2021/11/20 10:22:12;;;;;;;17.80;11.50;;;9.00;80.60;;;;;;4958441;28;20232;-78
2021/11/20 10:25:14;;;;;;;16.60;11.50;;;9.20;77.80;;;;;;4959291;28;20209;-79
2021/11/20 10:28:07;;;;;;;13.35;10.30;;;9.20;76.60;;;;;;4960014;28;20222;-78
2021/11/20 10:30:39;;;;;;;13.05;10.18;;;9.50;77.50;;;;;;4965777;28;20212;-81
2021/11/20 10:33:18;;;;;;;15.30;11.35;;;9.70;74.10;;;;;;4965089;28;20194;-79
2021/11/20 10:35:52;;;;;;;14.45;10.50;;;9.90;72.50;;;;;;4963171;28;20208;-81
2021/11/20 10:38:26;;;;;;;13.02;9.63;;;9.90;71.40;;;;;;4965172;28;20237;-80
2021/11/20 10:40:58;;;;;;;14.20;10.10;;;10.00;69.90;;;;;;4969375;28;20222;-80
2021/11/20 10:43:28;;;;;;;13.63;10.45;;;10.10;68.80;;;;;;4968838;28;20202;-79
2021/11/20 10:46:01;;;;;;;12.70;10.10;;;10.00;68.60;;;;;;4968237;28;20297;-82
2021/11/20 10:48:37;;;;;;;14.07;10.63;;;10.00;68.80;;;;;;4969175;28;20222;-81
2021/11/20 10:51:39;;;;;;;10.35;9.25;;;10.30;67.80;;;;;;4974075;28;20209;-80
2021/11/20 10:56:41;;;;;;;13.38;9.90;;;10.40;67.80;;;;;;4996058;28;20243;-80
2021/11/20 10:59:36;;;;;;;13.10;11.13;;;10.60;67.10;;;;;;4998650;28;20375;-80
2021/11/20 11:02:29;;;;;;;11.02;9.88;;;10.60;66.40;;;;;;4997650;28;20213;-80
2021/11/20 11:05:24;;;;;;;12.80;9.88;;;10.50;66.40;;;;;;5016779;28;20223;-79
2021/11/20 11:07:59;;;;;;;14.40;10.05;;;10.40;66.10;;;;;;4999814;28;20211;-81
2021/11/20 11:10:54;;;;;;;13.00;10.57;;;10.30;67.20;;;;;;5017135;28;20196;-84
2021/11/20 11:13:31;;;;;;;12.27;9.95;;;10.40;66.70;;;;;;5009279;28;20273;-80
2021/11/20 11:16:07;;;;;;;14.65;10.73;;;10.40;66.60;;;;;;4988777;28;20228;-81
2021/11/20 11:18:40;;;;;;;13.55;9.90;;;9.60;70.20;;;;;;5010828;28;20200;-83
2021/11/20 11:21:44;;;;;;;18.88;10.90;;;9.70;70.80;;;;;;5014742;28;20205;-83
2021/11/20 11:24:57;;;;;;;13.07;9.75;;;9.80;70.80;;;;;;5006199;28;20240;-81
2021/11/20 11:27:27;;;;;;;12.60;9.70;;;10.00;68.50;;;;;;5001739;28;20243;-79
2021/11/20 11:30:23;;;;;;;12.85;9.52;;;10.20;67.70;;;;;;4992515;28;20240;-80
2021/11/20 11:32:50;;;;;;;10.60;9.13;;;10.40;67.90;;;;;;4993238;28;20205;-80
2021/11/20 11:35:22;;;;;;;12.93;9.35;;;10.40;66.90;;;;;;4978161;28;20213;-79
2021/11/20 11:38:14;;;;;;;13.02;9.85;;;10.20;67.70;;;;;;4978470;28;20237;-79
2021/11/20 11:40:46;;;;;;;12.93;9.32;;;10.30;67.80;;;;;;4977425;28;20225;-78
2021/11/20 11:43:18;;;;;;;13.95;10.63;;;10.40;66.60;;;;;;4977128;28;20213;-79
2021/11/20 11:46:14;;;;;;;12.85;9.18;;;10.50;66.40;;;;;;4976311;28;20555;-80
2021/11/20 11:49:08;;;;;;;12.70;9.10;;;10.50;65.80;;;;;;4978440;28;20231;-81
2021/11/20 11:51:40;;;;;;;12.05;8.68;;;9.90;68.50;;;;;;4976634;28;20205;-79
2021/11/20 11:54:32;;;;;;;11.07;8.50;;;9.70;69.20;;;;;;4979497;28;20221;-80
2021/11/20 11:57:20;;;;;;;16.50;8.45;;;10.00;68.30;;;;;;4979341;28;20235;-80
2021/11/20 11:59:59;;;;;;;11.85;8.18;;;9.90;68.80;;;;;;4981958;28;20613;-82
2021/11/20 12:02:50;;;;;;;9.18;7.75;;;10.00;69.00;;;;;;4984928;28;20217;-81
2021/11/20 12:05:35;;;;;;;11.27;8.73;;;10.30;67.90;;;;;;4981090;28;20213;-81
2021/11/20 12:08:30;;;;;;;10.95;8.18;;;10.40;67.10;;;;;;4984645;28;20224;-80
2021/11/20 12:11:01;;;;;;;11.85;9.02;;;10.60;65.90;;;;;;4985605;28;20233;-80
2021/11/20 12:13:32;;;;;;;14.18;8.90;;;10.40;66.40;;;;;;4984671;28;20263;-79
2021/11/20 12:16:13;;;;;;;10.25;8.50;;;10.40;66.40;;;;;;4984187;28;20233;-81
2021/11/20 12:18:56;;;;;;;11.77;7.50;;;10.50;66.30;;;;;;4980254;28;20197;-80
2021/11/20 12:21:30;;;;;;;10.88;7.82;;;10.50;65.00;;;;;;4976323;28;20212;-80
2021/11/20 12:23:59;;;;;;;12.20;9.43;;;10.50;65.70;;;;;;4979671;28;20205;-81
2021/11/20 12:26:51;;;;;;;10.00;7.65;;;10.50;66.00;;;;;;4989737;28;20240;-80
2021/11/20 12:30:02;;;;;;;10.25;8.30;;;10.60;66.00;;;;;;4993197;28;20213;-82
2021/11/20 12:33:01;;;;;;;9.10;8.02;;;10.70;65.00;;;;;;4995696;28;20205;-81
2021/11/20 12:36:07;;;;;;;12.77;7.85;;;10.70;64.70;;;;;;4996594;28;20252;-82
2021/11/20 12:38:54;;;;;;;10.50;8.23;;;10.70;65.00;;;;;;4985674;28;20261;-82
2021/11/20 12:41:32;;;;;;;8.63;7.32;;;10.60;64.60;;;;;;4997039;28;20216;-82
2021/11/20 12:44:13;;;;;;;9.63;6.68;;;10.60;64.40;;;;;;4997086;28;20228;-81
2021/11/20 12:47:11;;;;;;;7.47;6.00;;;10.50;64.80;;;;;;4991827;28;20296;-82
2021/11/20 12:49:42;;;;;;;9.30;7.07;;;10.60;65.20;;;;;;4986525;28;20223;-79
2021/11/20 12:52:26;;;;;;;8.95;6.90;;;10.70;64.30;;;;;;4984213;28;20200;-80
2021/11/20 12:54:59;;;;;;;12.40;7.50;;;10.70;63.80;;;;;;4997291;28;20220;-79
2021/11/20 12:57:40;;;;;;;10.13;7.15;;;10.80;63.90;;;;;;5001867;28;20338;-81
2021/11/20 13:00:17;;;;;;;11.73;6.10;;;11.00;63.20;;;;;;5004464;28;20250;-80
2021/11/20 13:02:51;;;;;;;9.70;6.18;;;10.90;61.90;;;;;;5003234;28;20454;-79
2021/11/20 13:05:24;;;;;;;8.60;5.80;;;10.70;62.30;;;;;;4999188;28;20219;-80
2021/11/20 13:07:55;;;;;;;6.15;5.45;;;10.10;64.60;;;;;;5002597;28;20323;-81
2021/11/20 13:10:31;;;;;;;4.80;4.00;;;10.00;65.90;;;;;;5011247;28;20211;-81
2021/11/20 13:13:16;;;;;;;6.43;4.85;;;9.70;68.30;;;;;;5010245;28;20204;-82
2021/11/20 13:16:04;;;;;;;5.15;3.58;;;9.60;67.40;;;;;;5002183;28;20291;-82